sensor_id;sensor_type;location;lat;lon;timestamp;temperature;humidity
48515;DHT22;34309;47.260;2.796;2023-10-31T00:00:51;16.90;37.60
48515;DHT22;34309;47.260;2.796;2023-10-31T00:03:24;16.90;37.50
48515;DHT22;34309;47.260;2.796;2023-10-31T00:05:55;16.90;37.60
48515;DHT22;34309;47.260;2.796;2023-10-31T00:08:29;16.90;37.40
48515;DHT22;34309;47.260;2.796;2023-10-31T00:11:03;16.90;38.30
48515;DHT22;34309;47.260;2.796;2023-10-31T00:13:37;16.90;37.60
48515;DHT22;34309;47.260;2.796;2023-10-31T00:16:11;16.90;37.50
48515;DHT22;34309;47.260;2.796;2023-10-31T00:18:45;16.90;37.70
48515;DHT22;34309;47.260;2.796;2023-10-31T00:21:20;16.90;37.80
48515;DHT22;34309;47.260;2.796;2023-10-31T00:23:55;16.80;37.40
48515;DHT22;34309;47.260;2.796;2023-10-31T00:26:29;16.80;37.50
48515;DHT22;34309;47.260;2.796;2023-10-31T00:29:03;16.80;37.60
48515;DHT22;34309;47.260;2.796;2023-10-31T00:31:37;16.90;38.30
48515;DHT22;34309;47.260;2.796;2023-10-31T00:34:13;16.80;37.50
48515;DHT22;34309;47.260;2.796;2023-10-31T00:36:51;16.80;37.60
48515;DHT22;34309;47.260;2.796;2023-10-31T00:39:25;16.80;37.60
48515;DHT22;34309;47.260;2.796;2023-10-31T00:41:59;16.80;38.20
48515;DHT22;34309;47.260;2.796;2023-10-31T00:44:33;16.80;37.50
48515;DHT22;34309;47.260;2.796;2023-10-31T00:47:07;16.80;37.50
48515;DHT22;34309;47.260;2.796;2023-10-31T00:49:41;16.80;37.60
48515;DHT22;34309;47.260;2.796;2023-10-31T00:52:16;16.80;37.70
48515;DHT22;34309;47.260;2.796;2023-10-31T00:54:50;16.80;37.70
48515;DHT22;34309;47.260;2.796;2023-10-31T00:57:24;16.80;38.00
48515;DHT22;34309;47.260;2.796;2023-10-31T00:59:58;16.80;37.70
48515;DHT22;34309;47.260;2.796;2023-10-31T01:02:31;16.80;37.80
48515;DHT22;34309;47.260;2.796;2023-10-31T01:05:06;16.80;37.70
48515;DHT22;34309;47.260;2.796;2023-10-31T01:07:41;16.80;37.70
48515;DHT22;34309;47.260;2.796;2023-10-31T01:10:15;16.80;37.70
48515;DHT22;34309;47.260;2.796;2023-10-31T01:12:48;16.80;38.00
48515;DHT22;34309;47.260;2.796;2023-10-31T01:15:22;16.80;37.90
48515;DHT22;34309;47.260;2.796;2023-10-31T01:17:56;16.80;38.00
48515;DHT22;34309;47.260;2.796;2023-10-31T01:20:30;16.80;37.80
48515;DHT22;34309;47.260;2.796;2023-10-31T01:23:05;16.80;37.60
48515;DHT22;34309;47.260;2.796;2023-10-31T01:25:39;16.70;37.70
48515;DHT22;34309;47.260;2.796;2023-10-31T01:28:13;16.70;37.80
48515;DHT22;34309;47.260;2.796;2023-10-31T01:30:47;16.80;37.80
48515;DHT22;34309;47.260;2.796;2023-10-31T01:33:22;16.70;37.80
48515;DHT22;34309;47.260;2.796;2023-10-31T01:35:56;16.70;37.80
48515;DHT22;34309;47.260;2.796;2023-10-31T01:38:31;16.70;37.80
48515;DHT22;34309;47.260;2.796;2023-10-31T01:41:05;16.80;38.00
48515;DHT22;34309;47.260;2.796;2023-10-31T01:43:39;16.70;37.90
48515;DHT22;34309;47.260;2.796;2023-10-31T01:46:13;16.70;37.90
48515;DHT22;34309;47.260;2.796;2023-10-31T01:48:47;16.70;37.80
48515;DHT22;34309;47.260;2.796;2023-10-31T01:51:21;16.70;37.90
48515;DHT22;34309;47.260;2.796;2023-10-31T01:53:57;16.70;38.00
48515;DHT22;34309;47.260;2.796;2023-10-31T01:56:31;16.70;37.90
48515;DHT22;34309;47.260;2.796;2023-10-31T01:59:06;16.70;37.90
48515;DHT22;34309;47.260;2.796;2023-10-31T02:01:42;16.70;37.80
48515;DHT22;34309;47.260;2.796;2023-10-31T02:04:15;16.70;38.00
48515;DHT22;34309;47.260;2.796;2023-10-31T02:06:48;16.70;37.90
48515;DHT22;34309;47.260;2.796;2023-10-31T02:09:23;16.70;37.90
48515;DHT22;34309;47.260;2.796;2023-10-31T02:11:59;16.70;37.80
48515;DHT22;34309;47.260;2.796;2023-10-31T02:14:33;16.70;38.00
48515;DHT22;34309;47.260;2.796;2023-10-31T02:17:07;16.70;37.90
48515;DHT22;34309;47.260;2.796;2023-10-31T02:19:41;16.70;37.80
48515;DHT22;34309;47.260;2.796;2023-10-31T02:22:19;16.70;37.70
48515;DHT22;34309;47.260;2.796;2023-10-31T02:24:52;16.70;37.80
48515;DHT22;34309;47.260;2.796;2023-10-31T02:27:26;16.70;37.90
48515;DHT22;34309;47.260;2.796;2023-10-31T02:30:00;16.70;38.00
48515;DHT22;34309;47.260;2.796;2023-10-31T02:32:34;16.70;37.90
48515;DHT22;34309;47.260;2.796;2023-10-31T02:35:08;16.70;37.80
48515;DHT22;34309;47.260;2.796;2023-10-31T02:37:43;16.70;37.90
48515;DHT22;34309;47.260;2.796;2023-10-31T02:40:17;16.60;37.60
48515;DHT22;34309;47.260;2.796;2023-10-31T02:42:51;16.60;37.70
48515;DHT22;34309;47.260;2.796;2023-10-31T02:45:25;16.60;37.70
48515;DHT22;34309;47.260;2.796;2023-10-31T02:47:59;16.60;37.80
48515;DHT22;34309;47.260;2.796;2023-10-31T02:50:36;16.60;37.60
48515;DHT22;34309;47.260;2.796;2023-10-31T02:53:11;16.70;37.90
48515;DHT22;34309;47.260;2.796;2023-10-31T02:55:45;16.60;37.60
48515;DHT22;34309;47.260;2.796;2023-10-31T02:58:18;16.60;37.70
48515;DHT22;34309;47.260;2.796;2023-10-31T03:00:52;16.60;37.60
48515;DHT22;34309;47.260;2.796;2023-10-31T03:03:27;16.60;37.60
48515;DHT22;34309;47.260;2.796;2023-10-31T03:06:01;16.60;37.70
48515;DHT22;34309;47.260;2.796;2023-10-31T03:08:36;16.60;37.70
48515;DHT22;34309;47.260;2.796;2023-10-31T03:11:20;16.60;37.60
48515;DHT22;34309;47.260;2.796;2023-10-31T03:13:54;16.60;37.70
48515;DHT22;34309;47.260;2.796;2023-10-31T03:16:28;16.60;37.70
48515;DHT22;34309;47.260;2.796;2023-10-31T03:19:02;16.60;37.70
48515;DHT22;34309;47.260;2.796;2023-10-31T03:21:30;16.60;37.70
48515;DHT22;34309;47.260;2.796;2023-10-31T03:24:06;16.60;37.70
48515;DHT22;34309;47.260;2.796;2023-10-31T03:26:40;16.60;37.50
48515;DHT22;34309;47.260;2.796;2023-10-31T03:29:14;16.60;37.70
48515;DHT22;34309;47.260;2.796;2023-10-31T03:31:48;16.60;37.70
48515;DHT22;34309;47.260;2.796;2023-10-31T03:34:22;16.60;37.50
48515;DHT22;34309;47.260;2.796;2023-10-31T03:36:56;16.60;37.60
48515;DHT22;34309;47.260;2.796;2023-10-31T03:39:31;16.60;37.50
48515;DHT22;34309;47.260;2.796;2023-10-31T03:42:05;16.50;37.70
48515;DHT22;34309;47.260;2.796;2023-10-31T03:44:39;16.60;37.70
48515;DHT22;34309;47.260;2.796;2023-10-31T03:47:12;16.50;37.60
48515;DHT22;34309;47.260;2.796;2023-10-31T03:49:46;16.60;37.70
48515;DHT22;34309;47.260;2.796;2023-10-31T03:52:20;16.60;37.70
48515;DHT22;34309;47.260;2.796;2023-10-31T03:54:56;16.60;37.70
48515;DHT22;34309;47.260;2.796;2023-10-31T03:57:29;16.60;37.60
48515;DHT22;34309;47.260;2.796;2023-10-31T04:00:04;16.60;37.60
48515;DHT22;34309;47.260;2.796;2023-10-31T04:02:34;16.60;37.80
48515;DHT22;34309;47.260;2.796;2023-10-31T04:05:10;16.60;37.70
48515;DHT22;34309;47.260;2.796;2023-10-31T04:07:45;16.60;37.80
48515;DHT22;34309;47.260;2.796;2023-10-31T04:10:20;16.60;37.70
48515;DHT22;34309;47.260;2.796;2023-10-31T04:12:54;16.50;37.70
48515;DHT22;34309;47.260;2.796;2023-10-31T04:15:27;16.50;37.80
48515;DHT22;34309;47.260;2.796;2023-10-31T04:18:01;16.50;37.70
48515;DHT22;34309;47.260;2.796;2023-10-31T04:20:35;16.50;37.70
48515;DHT22;34309;47.260;2.796;2023-10-31T04:23:09;16.50;37.60
48515;DHT22;34309;47.260;2.796;2023-10-31T04:25:45;16.50;37.80
48515;DHT22;34309;47.260;2.796;2023-10-31T04:28:19;16.50;37.70
48515;DHT22;34309;47.260;2.796;2023-10-31T04:30:53;16.50;37.60
48515;DHT22;34309;47.260;2.796;2023-10-31T04:33:27;16.50;37.50
48515;DHT22;34309;47.260;2.796;2023-10-31T04:36:01;16.50;37.60
48515;DHT22;34309;47.260;2.796;2023-10-31T04:38:36;16.50;37.80
48515;DHT22;34309;47.260;2.796;2023-10-31T04:41:12;16.50;37.60
48515;DHT22;34309;47.260;2.796;2023-10-31T04:43:46;16.50;37.80
48515;DHT22;34309;47.260;2.796;2023-10-31T04:46:19;16.50;37.60
48515;DHT22;34309;47.260;2.796;2023-10-31T04:48:53;16.50;37.60
48515;DHT22;34309;47.260;2.796;2023-10-31T04:51:27;16.50;37.60
48515;DHT22;34309;47.260;2.796;2023-10-31T04:54:01;16.50;37.80
48515;DHT22;34309;47.260;2.796;2023-10-31T04:56:36;16.50;38.00
48515;DHT22;34309;47.260;2.796;2023-10-31T04:59:11;16.50;37.80
48515;DHT22;34309;47.260;2.796;2023-10-31T05:01:48;16.50;37.60
48515;DHT22;34309;47.260;2.796;2023-10-31T05:04:23;16.50;37.80
48515;DHT22;34309;47.260;2.796;2023-10-31T05:06:59;16.50;37.80
48515;DHT22;34309;47.260;2.796;2023-10-31T05:09:33;16.50;37.60
48515;DHT22;34309;47.260;2.796;2023-10-31T05:12:11;16.40;37.60
48515;DHT22;34309;47.260;2.796;2023-10-31T05:14:45;16.40;37.70
48515;DHT22;34309;47.260;2.796;2023-10-31T05:17:18;16.40;37.50
48515;DHT22;34309;47.260;2.796;2023-10-31T05:19:47;16.50;37.60
48515;DHT22;34309;47.260;2.796;2023-10-31T05:22:21;16.40;37.40
48515;DHT22;34309;47.260;2.796;2023-10-31T05:24:54;16.50;37.80
48515;DHT22;34309;47.260;2.796;2023-10-31T05:27:30;16.40;37.50
48515;DHT22;34309;47.260;2.796;2023-10-31T05:30:04;16.50;37.60
48515;DHT22;34309;47.260;2.796;2023-10-31T05:32:38;16.50;37.60
48515;DHT22;34309;47.260;2.796;2023-10-31T05:35:12;16.50;37.30
48515;DHT22;34309;47.260;2.796;2023-10-31T05:37:47;16.50;37.60
48515;DHT22;34309;47.260;2.796;2023-10-31T05:40:21;16.40;37.40
48515;DHT22;34309;47.260;2.796;2023-10-31T05:43:02;16.50;37.70
48515;DHT22;34309;47.260;2.796;2023-10-31T05:45:36;16.40;37.70
48515;DHT22;34309;47.260;2.796;2023-10-31T05:48:10;16.50;37.60
48515;DHT22;34309;47.260;2.796;2023-10-31T05:50:47;16.40;37.60
48515;DHT22;34309;47.260;2.796;2023-10-31T05:53:21;16.40;37.60
48515;DHT22;34309;47.260;2.796;2023-10-31T05:55:55;16.40;37.70
48515;DHT22;34309;47.260;2.796;2023-10-31T05:58:30;16.50;37.80
48515;DHT22;34309;47.260;2.796;2023-10-31T06:01:04;16.40;37.50
48515;DHT22;34309;47.260;2.796;2023-10-31T06:03:41;16.40;37.70
48515;DHT22;34309;47.260;2.796;2023-10-31T06:06:16;16.40;37.60
48515;DHT22;34309;47.260;2.796;2023-10-31T06:08:51;16.40;37.50
48515;DHT22;34309;47.260;2.796;2023-10-31T06:11:25;16.40;37.80
48515;DHT22;34309;47.260;2.796;2023-10-31T06:14:00;16.40;37.50
48515;DHT22;34309;47.260;2.796;2023-10-31T06:16:39;16.40;37.60
48515;DHT22;34309;47.260;2.796;2023-10-31T06:19:12;16.40;37.50
48515;DHT22;34309;47.260;2.796;2023-10-31T06:21:46;16.40;37.60
48515;DHT22;34309;47.260;2.796;2023-10-31T06:24:20;16.40;37.50
48515;DHT22;34309;47.260;2.796;2023-10-31T06:26:54;16.40;37.60
48515;DHT22;34309;47.260;2.796;2023-10-31T06:29:30;16.40;37.60
48515;DHT22;34309;47.260;2.796;2023-10-31T06:32:05;16.40;37.50
48515;DHT22;34309;47.260;2.796;2023-10-31T06:34:38;16.40;37.70
48515;DHT22;34309;47.260;2.796;2023-10-31T06:37:07;16.40;37.70
48515;DHT22;34309;47.260;2.796;2023-10-31T06:39:41;16.40;37.50
48515;DHT22;34309;47.260;2.796;2023-10-31T06:42:15;16.40;37.50
48515;DHT22;34309;47.260;2.796;2023-10-31T06:44:51;16.40;37.60
48515;DHT22;34309;47.260;2.796;2023-10-31T06:47:24;16.40;37.50
48515;DHT22;34309;47.260;2.796;2023-10-31T06:49:58;16.40;37.50
48515;DHT22;34309;47.260;2.796;2023-10-31T06:52:32;16.40;37.80
48515;DHT22;34309;47.260;2.796;2023-10-31T06:55:07;16.40;37.70
48515;DHT22;34309;47.260;2.796;2023-10-31T06:57:42;16.40;37.70
48515;DHT22;34309;47.260;2.796;2023-10-31T07:00:18;16.40;37.60
48515;DHT22;34309;47.260;2.796;2023-10-31T07:02:53;16.40;37.80
48515;DHT22;34309;47.260;2.796;2023-10-31T07:05:27;16.40;37.60
48515;DHT22;34309;47.260;2.796;2023-10-31T07:08:00;16.40;37.80
48515;DHT22;34309;47.260;2.796;2023-10-31T07:10:35;16.40;37.80
48515;DHT22;34309;47.260;2.796;2023-10-31T07:13:09;16.40;37.70
48515;DHT22;34309;47.260;2.796;2023-10-31T07:15:44;16.40;37.80
48515;DHT22;34309;47.260;2.796;2023-10-31T07:18:18;16.40;37.90
48515;DHT22;34309;47.260;2.796;2023-10-31T07:20:53;16.40;37.60
48515;DHT22;34309;47.260;2.796;2023-10-31T07:23:28;16.40;37.70
48515;DHT22;34309;47.260;2.796;2023-10-31T07:26:01;16.40;37.60
48515;DHT22;34309;47.260;2.796;2023-10-31T07:28:35;16.40;37.70
48515;DHT22;34309;47.260;2.796;2023-10-31T07:31:11;16.40;37.60
48515;DHT22;34309;47.260;2.796;2023-10-31T07:33:45;16.40;37.60
48515;DHT22;34309;47.260;2.796;2023-10-31T07:36:19;16.40;37.70
48515;DHT22;34309;47.260;2.796;2023-10-31T07:38:53;16.40;37.50
48515;DHT22;34309;47.260;2.796;2023-10-31T07:41:27;16.40;37.60
48515;DHT22;34309;47.260;2.796;2023-10-31T07:44:01;16.40;37.70
48515;DHT22;34309;47.260;2.796;2023-10-31T07:46:36;16.30;37.60
48515;DHT22;34309;47.260;2.796;2023-10-31T07:49:09;16.40;37.60
48515;DHT22;34309;47.260;2.796;2023-10-31T07:51:43;16.40;37.60
48515;DHT22;34309;47.260;2.796;2023-10-31T07:54:20;16.40;37.60
48515;DHT22;34309;47.260;2.796;2023-10-31T07:56:54;16.30;37.50
48515;DHT22;34309;47.260;2.796;2023-10-31T07:59:28;16.40;37.60
48515;DHT22;34309;47.260;2.796;2023-10-31T08:02:04;16.30;37.50
48515;DHT22;34309;47.260;2.796;2023-10-31T08:04:38;16.40;37.60
48515;DHT22;34309;47.260;2.796;2023-10-31T08:07:11;16.30;37.50
48515;DHT22;34309;47.260;2.796;2023-10-31T08:09:45;16.40;37.60
48515;DHT22;34309;47.260;2.796;2023-10-31T08:12:19;16.40;37.50
48515;DHT22;34309;47.260;2.796;2023-10-31T08:14:53;16.30;37.50
48515;DHT22;34309;47.260;2.796;2023-10-31T08:17:28;16.30;37.50
48515;DHT22;34309;47.260;2.796;2023-10-31T08:20:01;16.40;37.60
48515;DHT22;34309;47.260;2.796;2023-10-31T08:22:36;16.30;37.60
48515;DHT22;34309;47.260;2.796;2023-10-31T08:25:11;16.40;37.50
48515;DHT22;34309;47.260;2.796;2023-10-31T08:27:45;16.30;37.50
48515;DHT22;34309;47.260;2.796;2023-10-31T08:30:19;16.30;37.50
48515;DHT22;34309;47.260;2.796;2023-10-31T08:32:54;16.30;37.40
48515;DHT22;34309;47.260;2.796;2023-10-31T08:35:28;16.40;37.50
48515;DHT22;34309;47.260;2.796;2023-10-31T08:38:02;16.40;37.50
48515;DHT22;34309;47.260;2.796;2023-10-31T08:40:36;16.30;37.60
48515;DHT22;34309;47.260;2.796;2023-10-31T08:43:05;16.30;37.50
48515;DHT22;34309;47.260;2.796;2023-10-31T08:45:40;16.30;37.50
48515;DHT22;34309;47.260;2.796;2023-10-31T08:48:15;16.40;37.50
48515;DHT22;34309;47.260;2.796;2023-10-31T08:50:49;16.40;37.70
48515;DHT22;34309;47.260;2.796;2023-10-31T08:53:23;16.40;37.30
48515;DHT22;34309;47.260;2.796;2023-10-31T08:55:57;16.40;37.50
48515;DHT22;34309;47.260;2.796;2023-10-31T08:58:32;16.40;37.40
48515;DHT22;34309;47.260;2.796;2023-10-31T09:01:06;16.30;37.30
48515;DHT22;34309;47.260;2.796;2023-10-31T09:03:41;16.40;37.50
48515;DHT22;34309;47.260;2.796;2023-10-31T09:06:15;16.30;37.30
48515;DHT22;34309;47.260;2.796;2023-10-31T09:08:49;16.30;37.30
48515;DHT22;34309;47.260;2.796;2023-10-31T09:11:23;16.40;37.50
48515;DHT22;34309;47.260;2.796;2023-10-31T09:13:57;16.40;37.70
48515;DHT22;34309;47.260;2.796;2023-10-31T09:16:31;16.40;37.40
48515;DHT22;34309;47.260;2.796;2023-10-31T09:19:07;16.30;37.40
48515;DHT22;34309;47.260;2.796;2023-10-31T09:21:41;16.40;37.50
48515;DHT22;34309;47.260;2.796;2023-10-31T09:24:15;16.30;37.50
48515;DHT22;34309;47.260;2.796;2023-10-31T09:26:49;16.30;37.60
48515;DHT22;34309;47.260;2.796;2023-10-31T09:29:23;16.30;37.60
48515;DHT22;34309;47.260;2.796;2023-10-31T09:31:57;16.30;37.60
48515;DHT22;34309;47.260;2.796;2023-10-31T09:34:33;16.40;37.70
48515;DHT22;34309;47.260;2.796;2023-10-31T09:37:07;16.40;37.80
48515;DHT22;34309;47.260;2.796;2023-10-31T09:39:41;16.40;38.00
48515;DHT22;34309;47.260;2.796;2023-10-31T09:42:15;16.40;38.60
48515;DHT22;34309;47.260;2.796;2023-10-31T09:44:51;16.30;37.80
48515;DHT22;34309;47.260;2.796;2023-10-31T09:47:25;16.30;37.90
48515;DHT22;34309;47.260;2.796;2023-10-31T09:50:01;16.30;37.70
48515;DHT22;34309;47.260;2.796;2023-10-31T09:52:35;16.30;38.10
48515;DHT22;34309;47.260;2.796;2023-10-31T09:55:11;16.30;37.80
48515;DHT22;34309;47.260;2.796;2023-10-31T09:57:45;16.30;37.90
48515;DHT22;34309;47.260;2.796;2023-10-31T10:00:20;16.40;38.10
48515;DHT22;34309;47.260;2.796;2023-10-31T10:02:54;16.30;38.00
48515;DHT22;34309;47.260;2.796;2023-10-31T10:05:31;16.30;37.90
48515;DHT22;34309;47.260;2.796;2023-10-31T10:08:06;16.30;38.10
48515;DHT22;34309;47.260;2.796;2023-10-31T10:10:40;16.30;38.00
48515;DHT22;34309;47.260;2.796;2023-10-31T10:13:17;16.30;37.90
48515;DHT22;34309;47.260;2.796;2023-10-31T10:15:52;16.40;38.20
48515;DHT22;34309;47.260;2.796;2023-10-31T10:18:28;16.40;38.00
48515;DHT22;34309;47.260;2.796;2023-10-31T10:21:05;16.40;37.90
48515;DHT22;34309;47.260;2.796;2023-10-31T10:23:40;16.40;38.10
48515;DHT22;34309;47.260;2.796;2023-10-31T10:26:14;16.30;38.00
48515;DHT22;34309;47.260;2.796;2023-10-31T10:28:48;16.40;38.30
48515;DHT22;34309;47.260;2.796;2023-10-31T10:31:24;16.40;38.10
48515;DHT22;34309;47.260;2.796;2023-10-31T10:33:58;16.40;38.10
48515;DHT22;34309;47.260;2.796;2023-10-31T10:36:35;16.40;38.30
48515;DHT22;34309;47.260;2.796;2023-10-31T10:39:10;16.40;38.80
48515;DHT22;34309;47.260;2.796;2023-10-31T10:41:44;16.40;38.20
48515;DHT22;34309;47.260;2.796;2023-10-31T10:44:31;16.40;38.20
48515;DHT22;34309;47.260;2.796;2023-10-31T10:47:06;16.40;38.10
48515;DHT22;34309;47.260;2.796;2023-10-31T10:49:42;16.40;38.30
48515;DHT22;34309;47.260;2.796;2023-10-31T10:52:28;16.40;38.30
48515;DHT22;34309;47.260;2.796;2023-10-31T10:55:12;16.40;38.40
48515;DHT22;34309;47.260;2.796;2023-10-31T10:57:52;16.40;38.30
48515;DHT22;34309;47.260;2.796;2023-10-31T11:00:30;16.40;38.30
48515;DHT22;34309;47.260;2.796;2023-10-31T11:03:06;16.40;38.20
48515;DHT22;34309;47.260;2.796;2023-10-31T11:05:40;16.40;38.10
48515;DHT22;34309;47.260;2.796;2023-10-31T11:08:16;16.40;38.30
48515;DHT22;34309;47.260;2.796;2023-10-31T11:10:50;16.40;38.50
48515;DHT22;34309;47.260;2.796;2023-10-31T11:13:26;16.40;38.60
48515;DHT22;34309;47.260;2.796;2023-10-31T11:16:04;16.40;38.50
48515;DHT22;34309;47.260;2.796;2023-10-31T11:18:42;16.40;38.30
48515;DHT22;34309;47.260;2.796;2023-10-31T11:21:16;16.40;38.40
48515;DHT22;34309;47.260;2.796;2023-10-31T11:23:58;16.40;38.40
48515;DHT22;34309;47.260;2.796;2023-10-31T11:26:32;16.40;38.50
48515;DHT22;34309;47.260;2.796;2023-10-31T11:29:07;16.40;38.40
48515;DHT22;34309;47.260;2.796;2023-10-31T11:31:42;16.40;38.30
48515;DHT22;34309;47.260;2.796;2023-10-31T11:34:17;16.40;38.30
48515;DHT22;34309;47.260;2.796;2023-10-31T11:36:52;16.50;38.30
48515;DHT22;34309;47.260;2.796;2023-10-31T11:39:27;16.50;38.70
48515;DHT22;34309;47.260;2.796;2023-10-31T11:42:01;16.40;38.60
48515;DHT22;34309;47.260;2.796;2023-10-31T11:44:55;16.40;38.60
48515;DHT22;34309;47.260;2.796;2023-10-31T11:47:45;16.50;38.70
48515;DHT22;34309;47.260;2.796;2023-10-31T11:50:15;16.40;38.50
48515;DHT22;34309;47.260;2.796;2023-10-31T11:52:59;16.40;38.60
48515;DHT22;34309;47.260;2.796;2023-10-31T11:55:36;16.40;38.70
48515;DHT22;34309;47.260;2.796;2023-10-31T11:58:14;16.40;38.70
48515;DHT22;34309;47.260;2.796;2023-10-31T12:00:51;16.50;38.70
48515;DHT22;34309;47.260;2.796;2023-10-31T12:03:25;16.40;38.60
48515;DHT22;34309;47.260;2.796;2023-10-31T12:05:59;16.50;38.80
48515;DHT22;34309;47.260;2.796;2023-10-31T12:08:36;16.50;38.80
48515;DHT22;34309;47.260;2.796;2023-10-31T12:11:13;16.50;38.80
48515;DHT22;34309;47.260;2.796;2023-10-31T12:13:55;16.50;38.90
48515;DHT22;34309;47.260;2.796;2023-10-31T12:16:31;16.50;38.70
48515;DHT22;34309;47.260;2.796;2023-10-31T12:19:06;16.50;38.90
48515;DHT22;34309;47.260;2.796;2023-10-31T12:21:41;16.50;38.60
48515;DHT22;34309;47.260;2.796;2023-10-31T12:24:16;16.50;38.80
48515;DHT22;34309;47.260;2.796;2023-10-31T12:26:52;16.50;38.80
48515;DHT22;34309;47.260;2.796;2023-10-31T12:29:26;16.50;38.90
48515;DHT22;34309;47.260;2.796;2023-10-31T12:32:01;16.50;38.80
48515;DHT22;34309;47.260;2.796;2023-10-31T12:34:36;16.50;38.90
48515;DHT22;34309;47.260;2.796;2023-10-31T12:37:10;16.50;39.00
48515;DHT22;34309;47.260;2.796;2023-10-31T12:39:47;16.50;39.00
48515;DHT22;34309;47.260;2.796;2023-10-31T12:42:23;16.50;38.90
48515;DHT22;34309;47.260;2.796;2023-10-31T12:45:05;16.50;38.90
48515;DHT22;34309;47.260;2.796;2023-10-31T12:47:39;16.50;38.90
48515;DHT22;34309;47.260;2.796;2023-10-31T12:50:14;16.50;39.00
48515;DHT22;34309;47.260;2.796;2023-10-31T12:52:48;16.50;39.10
48515;DHT22;34309;47.260;2.796;2023-10-31T12:55:23;16.50;39.20
48515;DHT22;34309;47.260;2.796;2023-10-31T12:57:59;16.60;39.30
48515;DHT22;34309;47.260;2.796;2023-10-31T13:00:34;16.60;39.30
48515;DHT22;34309;47.260;2.796;2023-10-31T13:03:09;16.50;39.10
48515;DHT22;34309;47.260;2.796;2023-10-31T13:05:45;16.60;39.10
48515;DHT22;34309;47.260;2.796;2023-10-31T13:08:19;16.60;39.20
48515;DHT22;34309;47.260;2.796;2023-10-31T13:10:53;16.60;39.30
48515;DHT22;34309;47.260;2.796;2023-10-31T13:13:28;16.60;39.20
48515;DHT22;34309;47.260;2.796;2023-10-31T13:16:03;16.60;39.30
48515;DHT22;34309;47.260;2.796;2023-10-31T13:18:36;16.60;39.20
48515;DHT22;34309;47.260;2.796;2023-10-31T13:21:10;16.60;39.20
48515;DHT22;34309;47.260;2.796;2023-10-31T13:23:47;16.60;39.10
48515;DHT22;34309;47.260;2.796;2023-10-31T13:26:21;16.60;39.10
48515;DHT22;34309;47.260;2.796;2023-10-31T13:28:56;16.60;39.20
48515;DHT22;34309;47.260;2.796;2023-10-31T13:31:30;16.60;39.20
48515;DHT22;34309;47.260;2.796;2023-10-31T13:34:04;16.60;39.30
48515;DHT22;34309;47.260;2.796;2023-10-31T13:36:38;16.60;39.20
48515;DHT22;34309;47.260;2.796;2023-10-31T13:39:12;16.60;39.40
48515;DHT22;34309;47.260;2.796;2023-10-31T13:41:46;16.60;39.40
48515;DHT22;34309;47.260;2.796;2023-10-31T13:44:22;16.60;39.10
48515;DHT22;34309;47.260;2.796;2023-10-31T13:46:56;16.60;39.00
48515;DHT22;34309;47.260;2.796;2023-10-31T13:49:30;16.60;39.20
48515;DHT22;34309;47.260;2.796;2023-10-31T13:52:05;16.60;39.10
48515;DHT22;34309;47.260;2.796;2023-10-31T13:54:39;16.60;39.00
48515;DHT22;34309;47.260;2.796;2023-10-31T13:57:13;16.60;39.10
48515;DHT22;34309;47.260;2.796;2023-10-31T13:59:50;16.60;39.20
48515;DHT22;34309;47.260;2.796;2023-10-31T14:02:24;16.60;39.30
48515;DHT22;34309;47.260;2.796;2023-10-31T14:04:56;16.60;39.20
48515;DHT22;34309;47.260;2.796;2023-10-31T14:07:30;16.60;39.00
48515;DHT22;34309;47.260;2.796;2023-10-31T14:09:59;16.60;39.10
48515;DHT22;34309;47.260;2.796;2023-10-31T14:12:33;16.60;39.10
48515;DHT22;34309;47.260;2.796;2023-10-31T14:15:09;16.60;39.10
48515;DHT22;34309;47.260;2.796;2023-10-31T14:17:43;16.70;39.10
48515;DHT22;34309;47.260;2.796;2023-10-31T14:20:16;16.60;39.10
48515;DHT22;34309;47.260;2.796;2023-10-31T14:22:51;16.60;39.00
48515;DHT22;34309;47.260;2.796;2023-10-31T14:25:24;16.70;39.00
48515;DHT22;34309;47.260;2.796;2023-10-31T14:27:59;16.70;39.00
48515;DHT22;34309;47.260;2.796;2023-10-31T14:30:34;16.70;38.90
48515;DHT22;34309;47.260;2.796;2023-10-31T14:33:08;16.70;39.00
48515;DHT22;34309;47.260;2.796;2023-10-31T14:35:42;16.70;39.00
48515;DHT22;34309;47.260;2.796;2023-10-31T14:38:16;16.70;38.90
48515;DHT22;34309;47.260;2.796;2023-10-31T14:40:50;16.70;39.10
48515;DHT22;34309;47.260;2.796;2023-10-31T14:43:24;16.70;39.20
48515;DHT22;34309;47.260;2.796;2023-10-31T14:45:59;16.70;39.10
48515;DHT22;34309;47.260;2.796;2023-10-31T14:48:34;16.70;39.10
48515;DHT22;34309;47.260;2.796;2023-10-31T14:51:08;16.70;39.00
48515;DHT22;34309;47.260;2.796;2023-10-31T14:53:42;16.70;38.90
48515;DHT22;34309;47.260;2.796;2023-10-31T14:56:17;16.70;39.20
48515;DHT22;34309;47.260;2.796;2023-10-31T14:58:51;16.70;39.10
48515;DHT22;34309;47.260;2.796;2023-10-31T15:01:27;16.70;39.10
48515;DHT22;34309;47.260;2.796;2023-10-31T15:04:01;16.70;38.90
48515;DHT22;34309;47.260;2.796;2023-10-31T15:06:36;16.70;38.90
48515;DHT22;34309;47.260;2.796;2023-10-31T15:09:10;16.70;38.70
48515;DHT22;34309;47.260;2.796;2023-10-31T15:11:44;16.70;38.80
48515;DHT22;34309;47.260;2.796;2023-10-31T15:14:18;16.70;38.80
48515;DHT22;34309;47.260;2.796;2023-10-31T15:16:54;16.70;38.70
48515;DHT22;34309;47.260;2.796;2023-10-31T15:19:27;16.70;39.00
48515;DHT22;34309;47.260;2.796;2023-10-31T15:22:09;16.70;39.00
48515;DHT22;34309;47.260;2.796;2023-10-31T15:24:52;16.70;38.80
48515;DHT22;34309;47.260;2.796;2023-10-31T15:27:26;16.70;38.80
48515;DHT22;34309;47.260;2.796;2023-10-31T15:30:00;16.70;38.90
48515;DHT22;34309;47.260;2.796;2023-10-31T15:32:35;16.70;38.90
48515;DHT22;34309;47.260;2.796;2023-10-31T15:35:09;16.70;38.90
48515;DHT22;34309;47.260;2.796;2023-10-31T15:37:44;16.70;38.80
48515;DHT22;34309;47.260;2.796;2023-10-31T15:40:18;16.70;38.70
48515;DHT22;34309;47.260;2.796;2023-10-31T15:42:52;16.70;38.70
48515;DHT22;34309;47.260;2.796;2023-10-31T15:45:21;16.70;38.80
48515;DHT22;34309;47.260;2.796;2023-10-31T15:47:57;16.70;38.60
48515;DHT22;34309;47.260;2.796;2023-10-31T15:50:31;16.70;38.70
48515;DHT22;34309;47.260;2.796;2023-10-31T15:53:06;16.70;38.70
48515;DHT22;34309;47.260;2.796;2023-10-31T15:55:40;16.70;38.90
48515;DHT22;34309;47.260;2.796;2023-10-31T15:58:17;16.70;38.70
48515;DHT22;34309;47.260;2.796;2023-10-31T16:00:51;16.70;38.80
48515;DHT22;34309;47.260;2.796;2023-10-31T16:03:26;16.70;38.80
48515;DHT22;34309;47.260;2.796;2023-10-31T16:06:00;16.70;38.80
48515;DHT22;34309;47.260;2.796;2023-10-31T16:08:34;16.70;38.70
48515;DHT22;34309;47.260;2.796;2023-10-31T16:11:12;16.70;38.60
48515;DHT22;34309;47.260;2.796;2023-10-31T16:13:46;16.70;38.70
48515;DHT22;34309;47.260;2.796;2023-10-31T16:16:20;16.70;38.60